sensor_id;sensor_type;location;lat;lon;timestamp;P1;durP1;ratioP1;P2;durP2;ratioP2
830;SDS011;397;50.564;7.272;2022-10-10T00:00:48;8.63;;;4.03;;
830;SDS011;397;50.564;7.272;2022-10-10T00:03:17;5.63;;;4.37;;
830;SDS011;397;50.564;7.272;2022-10-10T00:05:45;7.10;;;3.87;;
830;SDS011;397;50.564;7.272;2022-10-10T00:08:13;5.20;;;3.50;;
830;SDS011;397;50.564;7.272;2022-10-10T00:10:41;4.27;;;3.27;;
830;SDS011;397;50.564;7.272;2022-10-10T00:13:08;4.40;;;3.10;;
830;SDS011;397;50.564;7.272;2022-10-10T00:15:36;5.53;;;4.43;;
830;SDS011;397;50.564;7.272;2022-10-10T00:18:03;7.27;;;5.00;;
830;SDS011;397;50.564;7.272;2022-10-10T00:20:31;4.87;;;3.80;;
830;SDS011;397;50.564;7.272;2022-10-10T00:22:58;6.67;;;3.90;;
830;SDS011;397;50.564;7.272;2022-10-10T00:25:26;9.50;;;4.30;;
830;SDS011;397;50.564;7.272;2022-10-10T00:27:54;8.80;;;3.80;;
830;SDS011;397;50.564;7.272;2022-10-10T00:30:22;6.50;;;3.67;;
830;SDS011;397;50.564;7.272;2022-10-10T00:32:49;5.37;;;3.33;;
830;SDS011;397;50.564;7.272;2022-10-10T00:35:17;6.43;;;3.83;;
830;SDS011;397;50.564;7.272;2022-10-10T00:37:44;4.27;;;3.00;;
830;SDS011;397;50.564;7.272;2022-10-10T00:40:12;3.43;;;2.63;;
830;SDS011;397;50.564;7.272;2022-10-10T00:42:40;4.53;;;3.13;;
830;SDS011;397;50.564;7.272;2022-10-10T00:45:24;4.30;;;3.23;;
830;SDS011;397;50.564;7.272;2022-10-10T00:48:15;3.83;;;3.20;;
830;SDS011;397;50.564;7.272;2022-10-10T00:50:33;5.30;;;3.50;;
830;SDS011;397;50.564;7.272;2022-10-10T00:53:05;4.40;;;3.70;;
830;SDS011;397;50.564;7.272;2022-10-10T00:55:36;5.27;;;3.70;;
830;SDS011;397;50.564;7.272;2022-10-10T00:58:04;5.27;;;3.60;;
830;SDS011;397;50.564;7.272;2022-10-10T01:00:34;4.93;;;3.23;;
830;SDS011;397;50.564;7.272;2022-10-10T01:03:02;4.33;;;3.40;;
830;SDS011;397;50.564;7.272;2022-10-10T01:05:29;4.47;;;3.30;;
830;SDS011;397;50.564;7.272;2022-10-10T01:07:59;5.17;;;3.43;;
830;SDS011;397;50.564;7.272;2022-10-10T01:10:28;11.53;;;3.60;;
830;SDS011;397;50.564;7.272;2022-10-10T01:18:33;5.40;;;4.17;;
830;SDS011;397;50.564;7.272;2022-10-10T01:29:46;8.40;;;4.00;;
830;SDS011;397;50.564;7.272;2022-10-10T01:32:16;4.20;;;3.43;;
830;SDS011;397;50.564;7.272;2022-10-10T01:37:27;5.80;;;3.63;;
830;SDS011;397;50.564;7.272;2022-10-10T01:45:02;7.80;;;3.90;;
830;SDS011;397;50.564;7.272;2022-10-10T01:47:31;3.90;;;3.13;;
830;SDS011;397;50.564;7.272;2022-10-10T01:50:00;3.60;;;3.00;;
830;SDS011;397;50.564;7.272;2022-10-10T01:52:35;5.73;;;3.53;;
830;SDS011;397;50.564;7.272;2022-10-10T02:00:31;7.40;;;3.70;;
830;SDS011;397;50.564;7.272;2022-10-10T02:03:04;5.70;;;3.43;;
830;SDS011;397;50.564;7.272;2022-10-10T02:05:36;4.40;;;3.40;;
830;SDS011;397;50.564;7.272;2022-10-10T02:08:14;9.00;;;3.17;;
830;SDS011;397;50.564;7.272;2022-10-10T02:11:02;6.50;;;3.40;;
830;SDS011;397;50.564;7.272;2022-10-10T02:13:29;3.63;;;2.87;;
830;SDS011;397;50.564;7.272;2022-10-10T02:16:00;4.30;;;3.43;;
830;SDS011;397;50.564;7.272;2022-10-10T02:18:31;6.33;;;3.23;;
830;SDS011;397;50.564;7.272;2022-10-10T02:21:01;4.83;;;3.00;;
830;SDS011;397;50.564;7.272;2022-10-10T02:23:32;3.80;;;2.60;;
830;SDS011;397;50.564;7.272;2022-10-10T02:26:01;3.60;;;2.80;;
830;SDS011;397;50.564;7.272;2022-10-10T02:32:04;4.27;;;3.67;;
830;SDS011;397;50.564;7.272;2022-10-10T02:33:53;5.07;;;3.10;;
830;SDS011;397;50.564;7.272;2022-10-10T02:36:22;4.67;;;3.33;;
830;SDS011;397;50.564;7.272;2022-10-10T02:38:52;5.27;;;3.60;;
830;SDS011;397;50.564;7.272;2022-10-10T02:41:21;4.40;;;3.50;;
830;SDS011;397;50.564;7.272;2022-10-10T02:43:50;4.80;;;3.80;;
830;SDS011;397;50.564;7.272;2022-10-10T02:46:18;3.53;;;3.17;;
830;SDS011;397;50.564;7.272;2022-10-10T02:48:46;5.03;;;3.20;;
830;SDS011;397;50.564;7.272;2022-10-10T02:51:13;3.83;;;3.23;;
830;SDS011;397;50.564;7.272;2022-10-10T02:53:42;5.57;;;4.13;;
830;SDS011;397;50.564;7.272;2022-10-10T02:56:10;5.53;;;4.30;;
830;SDS011;397;50.564;7.272;2022-10-10T02:58:37;5.67;;;4.57;;
830;SDS011;397;50.564;7.272;2022-10-10T03:01:04;5.57;;;4.17;;
830;SDS011;397;50.564;7.272;2022-10-10T03:03:32;5.90;;;3.70;;
830;SDS011;397;50.564;7.272;2022-10-10T03:06:00;6.73;;;3.70;;
830;SDS011;397;50.564;7.272;2022-10-10T03:08:28;4.73;;;3.27;;
830;SDS011;397;50.564;7.272;2022-10-10T03:10:56;5.30;;;3.30;;
830;SDS011;397;50.564;7.272;2022-10-10T03:13:27;5.43;;;4.40;;
830;SDS011;397;50.564;7.272;2022-10-10T03:15:55;4.50;;;3.00;;
830;SDS011;397;50.564;7.272;2022-10-10T03:18:22;4.23;;;3.67;;
830;SDS011;397;50.564;7.272;2022-10-10T03:20:55;7.20;;;4.50;;
830;SDS011;397;50.564;7.272;2022-10-10T03:23:23;4.83;;;4.03;;
830;SDS011;397;50.564;7.272;2022-10-10T03:25:51;4.47;;;4.07;;
830;SDS011;397;50.564;7.272;2022-10-10T03:28:19;5.50;;;3.80;;
830;SDS011;397;50.564;7.272;2022-10-10T03:30:48;5.97;;;4.43;;
830;SDS011;397;50.564;7.272;2022-10-10T03:33:15;5.97;;;4.60;;
830;SDS011;397;50.564;7.272;2022-10-10T03:35:43;6.47;;;4.63;;
830;SDS011;397;50.564;7.272;2022-10-10T03:38:11;7.47;;;5.17;;
830;SDS011;397;50.564;7.272;2022-10-10T03:40:40;5.40;;;4.90;;
830;SDS011;397;50.564;7.272;2022-10-10T03:43:09;11.80;;;6.60;;
830;SDS011;397;50.564;7.272;2022-10-10T03:45:42;6.70;;;6.00;;
830;SDS011;397;50.564;7.272;2022-10-10T03:48:12;8.70;;;7.23;;
830;SDS011;397;50.564;7.272;2022-10-10T03:50:40;12.77;;;7.90;;
830;SDS011;397;50.564;7.272;2022-10-10T03:53:08;7.80;;;7.00;;
830;SDS011;397;50.564;7.272;2022-10-10T03:55:38;12.60;;;8.83;;
830;SDS011;397;50.564;7.272;2022-10-10T03:58:06;11.90;;;8.60;;
830;SDS011;397;50.564;7.272;2022-10-10T04:00:34;8.63;;;7.60;;
830;SDS011;397;50.564;7.272;2022-10-10T04:03:03;9.90;;;7.90;;
830;SDS011;397;50.564;7.272;2022-10-10T04:05:35;10.20;;;7.70;;
830;SDS011;397;50.564;7.272;2022-10-10T04:08:01;10.97;;;6.70;;
830;SDS011;397;50.564;7.272;2022-10-10T04:10:29;10.07;;;5.97;;
830;SDS011;397;50.564;7.272;2022-10-10T04:12:57;9.53;;;6.40;;
830;SDS011;397;50.564;7.272;2022-10-10T04:15:25;8.30;;;5.70;;
830;SDS011;397;50.564;7.272;2022-10-10T04:17:52;6.20;;;5.60;;
830;SDS011;397;50.564;7.272;2022-10-10T04:20:20;9.13;;;6.53;;
830;SDS011;397;50.564;7.272;2022-10-10T04:22:47;9.17;;;5.30;;
830;SDS011;397;50.564;7.272;2022-10-10T04:25:15;6.20;;;5.60;;
830;SDS011;397;50.564;7.272;2022-10-10T04:27:43;5.40;;;4.80;;
830;SDS011;397;50.564;7.272;2022-10-10T04:30:10;5.87;;;4.40;;
830;SDS011;397;50.564;7.272;2022-10-10T04:32:38;6.53;;;4.67;;
830;SDS011;397;50.564;7.272;2022-10-10T04:35:06;5.43;;;4.93;;
830;SDS011;397;50.564;7.272;2022-10-10T04:37:34;9.67;;;6.67;;
830;SDS011;397;50.564;7.272;2022-10-10T04:40:02;5.70;;;4.80;;
830;SDS011;397;50.564;7.272;2022-10-10T04:42:30;12.00;;;5.60;;
830;SDS011;397;50.564;7.272;2022-10-10T04:44:58;6.90;;;6.20;;
830;SDS011;397;50.564;7.272;2022-10-10T04:47:25;6.30;;;5.80;;
830;SDS011;397;50.564;7.272;2022-10-10T04:49:52;7.10;;;6.20;;
830;SDS011;397;50.564;7.272;2022-10-10T04:52:20;9.83;;;6.10;;
830;SDS011;397;50.564;7.272;2022-10-10T04:54:47;7.90;;;6.10;;
830;SDS011;397;50.564;7.272;2022-10-10T04:57:15;7.73;;;5.43;;
830;SDS011;397;50.564;7.272;2022-10-10T04:59:42;7.33;;;5.93;;
830;SDS011;397;50.564;7.272;2022-10-10T05:02:10;6.50;;;5.80;;
830;SDS011;397;50.564;7.272;2022-10-10T05:04:37;8.10;;;6.50;;
830;SDS011;397;50.564;7.272;2022-10-10T05:07:05;6.53;;;5.90;;
830;SDS011;397;50.564;7.272;2022-10-10T05:09:33;8.23;;;7.43;;
830;SDS011;397;50.564;7.272;2022-10-10T05:12:00;11.10;;;7.83;;
830;SDS011;397;50.564;7.272;2022-10-10T05:14:28;10.23;;;7.50;;
830;SDS011;397;50.564;7.272;2022-10-10T05:16:55;7.40;;;5.83;;
830;SDS011;397;50.564;7.272;2022-10-10T05:19:23;5.73;;;5.23;;
830;SDS011;397;50.564;7.272;2022-10-10T05:21:50;7.50;;;5.30;;
830;SDS011;397;50.564;7.272;2022-10-10T05:24:18;7.97;;;5.43;;
830;SDS011;397;50.564;7.272;2022-10-10T05:26:45;7.70;;;5.03;;
830;SDS011;397;50.564;7.272;2022-10-10T05:29:13;8.03;;;6.00;;
830;SDS011;397;50.564;7.272;2022-10-10T05:31:40;7.33;;;5.60;;
830;SDS011;397;50.564;7.272;2022-10-10T05:34:11;8.10;;;4.67;;
830;SDS011;397;50.564;7.272;2022-10-10T05:36:40;7.53;;;5.63;;
830;SDS011;397;50.564;7.272;2022-10-10T05:39:07;8.53;;;5.40;;
830;SDS011;397;50.564;7.272;2022-10-10T05:41:35;7.53;;;5.40;;
830;SDS011;397;50.564;7.272;2022-10-10T05:44:02;6.10;;;5.17;;
830;SDS011;397;50.564;7.272;2022-10-10T05:46:30;7.30;;;5.20;;
830;SDS011;397;50.564;7.272;2022-10-10T05:48:57;6.30;;;5.70;;
830;SDS011;397;50.564;7.272;2022-10-10T05:51:25;7.90;;;6.27;;
830;SDS011;397;50.564;7.272;2022-10-10T05:53:53;5.30;;;4.80;;
830;SDS011;397;50.564;7.272;2022-10-10T05:56:22;6.40;;;5.47;;
830;SDS011;397;50.564;7.272;2022-10-10T05:58:50;7.07;;;5.33;;
830;SDS011;397;50.564;7.272;2022-10-10T06:01:18;8.53;;;5.77;;
830;SDS011;397;50.564;7.272;2022-10-10T06:03:46;6.77;;;6.13;;
830;SDS011;397;50.564;7.272;2022-10-10T06:06:15;7.07;;;5.90;;
830;SDS011;397;50.564;7.272;2022-10-10T06:08:43;9.57;;;6.87;;
830;SDS011;397;50.564;7.272;2022-10-10T06:11:10;8.70;;;5.53;;
830;SDS011;397;50.564;7.272;2022-10-10T06:13:38;6.60;;;5.67;;
830;SDS011;397;50.564;7.272;2022-10-10T06:16:05;9.43;;;6.00;;
830;SDS011;397;50.564;7.272;2022-10-10T06:18:33;7.40;;;5.80;;
830;SDS011;397;50.564;7.272;2022-10-10T06:21:01;8.63;;;6.20;;
830;SDS011;397;50.564;7.272;2022-10-10T06:23:33;6.30;;;5.70;;
830;SDS011;397;50.564;7.272;2022-10-10T06:26:00;8.13;;;6.00;;
830;SDS011;397;50.564;7.272;2022-10-10T06:28:29;6.13;;;5.27;;
830;SDS011;397;50.564;7.272;2022-10-10T06:31:00;7.00;;;6.30;;
830;SDS011;397;50.564;7.272;2022-10-10T06:33:29;8.70;;;5.77;;
830;SDS011;397;50.564;7.272;2022-10-10T06:35:57;10.47;;;6.43;;
830;SDS011;397;50.564;7.272;2022-10-10T06:38:26;7.43;;;5.73;;
830;SDS011;397;50.564;7.272;2022-10-10T06:40:54;6.37;;;5.57;;
830;SDS011;397;50.564;7.272;2022-10-10T06:43:22;6.70;;;6.00;;
830;SDS011;397;50.564;7.272;2022-10-10T06:45:49;12.47;;;6.13;;
830;SDS011;397;50.564;7.272;2022-10-10T06:48:17;9.27;;;7.00;;
830;SDS011;397;50.564;7.272;2022-10-10T06:50:54;11.00;;;6.40;;
830;SDS011;397;50.564;7.272;2022-10-10T06:53:23;7.47;;;5.70;;
830;SDS011;397;50.564;7.272;2022-10-10T06:55:53;10.03;;;5.40;;
830;SDS011;397;50.564;7.272;2022-10-10T06:58:21;8.93;;;6.03;;
830;SDS011;397;50.564;7.272;2022-10-10T07:00:50;10.83;;;7.17;;
830;SDS011;397;50.564;7.272;2022-10-10T07:03:22;11.73;;;8.50;;
830;SDS011;397;50.564;7.272;2022-10-10T07:05:51;10.87;;;8.77;;
830;SDS011;397;50.564;7.272;2022-10-10T07:08:20;14.10;;;9.53;;
830;SDS011;397;50.564;7.272;2022-10-10T07:10:49;13.90;;;11.17;;
830;SDS011;397;50.564;7.272;2022-10-10T07:13:17;18.20;;;10.60;;
830;SDS011;397;50.564;7.272;2022-10-10T07:15:45;7.63;;;6.77;;
830;SDS011;397;50.564;7.272;2022-10-10T07:18:12;11.43;;;6.23;;
830;SDS011;397;50.564;7.272;2022-10-10T07:20:42;7.10;;;6.40;;
830;SDS011;397;50.564;7.272;2022-10-10T07:23:09;11.60;;;6.73;;
830;SDS011;397;50.564;7.272;2022-10-10T07:25:37;7.73;;;6.03;;
830;SDS011;397;50.564;7.272;2022-10-10T07:28:06;8.33;;;5.70;;
830;SDS011;397;50.564;7.272;2022-10-10T07:30:38;7.07;;;5.37;;
830;SDS011;397;50.564;7.272;2022-10-10T07:33:08;7.40;;;5.73;;
830;SDS011;397;50.564;7.272;2022-10-10T07:35:37;8.37;;;6.07;;
830;SDS011;397;50.564;7.272;2022-10-10T07:38:04;7.90;;;5.80;;
830;SDS011;397;50.564;7.272;2022-10-10T07:40:32;8.80;;;5.80;;
830;SDS011;397;50.564;7.272;2022-10-10T07:43:00;8.47;;;7.67;;
830;SDS011;397;50.564;7.272;2022-10-10T07:45:27;12.33;;;9.53;;
830;SDS011;397;50.564;7.272;2022-10-10T07:47:54;7.87;;;6.50;;
830;SDS011;397;50.564;7.272;2022-10-10T07:50:22;9.37;;;6.60;;
830;SDS011;397;50.564;7.272;2022-10-10T07:52:50;8.23;;;6.20;;
830;SDS011;397;50.564;7.272;2022-10-10T07:55:18;6.40;;;5.73;;
830;SDS011;397;50.564;7.272;2022-10-10T07:57:45;9.60;;;7.33;;
830;SDS011;397;50.564;7.272;2022-10-10T08:00:14;7.93;;;6.60;;
830;SDS011;397;50.564;7.272;2022-10-10T08:02:41;9.37;;;6.63;;
830;SDS011;397;50.564;7.272;2022-10-10T08:05:09;8.20;;;7.40;;
830;SDS011;397;50.564;7.272;2022-10-10T08:07:37;9.63;;;6.20;;
830;SDS011;397;50.564;7.272;2022-10-10T08:10:04;9.30;;;6.20;;
830;SDS011;397;50.564;7.272;2022-10-10T08:12:33;7.37;;;6.53;;
830;SDS011;397;50.564;7.272;2022-10-10T08:15:00;8.40;;;6.17;;
830;SDS011;397;50.564;7.272;2022-10-10T08:17:28;8.20;;;6.37;;
830;SDS011;397;50.564;7.272;2022-10-10T08:19:56;7.63;;;6.77;;
830;SDS011;397;50.564;7.272;2022-10-10T08:22:24;6.80;;;6.10;;
830;SDS011;397;50.564;7.272;2022-10-10T08:24:51;6.90;;;6.20;;
830;SDS011;397;50.564;7.272;2022-10-10T08:27:19;7.57;;;6.20;;
830;SDS011;397;50.564;7.272;2022-10-10T08:29:46;7.97;;;5.87;;
830;SDS011;397;50.564;7.272;2022-10-10T08:32:14;8.00;;;6.37;;
830;SDS011;397;50.564;7.272;2022-10-10T08:34:41;7.60;;;5.70;;
830;SDS011;397;50.564;7.272;2022-10-10T08:37:09;12.50;;;7.60;;
830;SDS011;397;50.564;7.272;2022-10-10T08:39:36;7.00;;;5.40;;
830;SDS011;397;50.564;7.272;2022-10-10T08:42:04;8.57;;;6.90;;
830;SDS011;397;50.564;7.272;2022-10-10T08:44:36;7.60;;;6.40;;
830;SDS011;397;50.564;7.272;2022-10-10T08:49:48;7.30;;;6.07;;
830;SDS011;397;50.564;7.272;2022-10-10T08:52:44;7.00;;;5.43;;
830;SDS011;397;50.564;7.272;2022-10-10T08:55:16;13.43;;;6.60;;
830;SDS011;397;50.564;7.272;2022-10-10T08:57:50;8.57;;;6.43;;
830;SDS011;397;50.564;7.272;2022-10-10T09:00:21;9.23;;;6.27;;
830;SDS011;397;50.564;7.272;2022-10-10T09:02:54;5.90;;;5.30;;
830;SDS011;397;50.564;7.272;2022-10-10T09:05:32;9.10;;;7.40;;
830;SDS011;397;50.564;7.272;2022-10-10T09:08:03;14.53;;;7.07;;
830;SDS011;397;50.564;7.272;2022-10-10T09:13:39;7.23;;;5.33;;
830;SDS011;397;50.564;7.272;2022-10-10T09:19:11;8.53;;;5.97;;
830;SDS011;397;50.564;7.272;2022-10-10T09:21:38;8.60;;;5.43;;
830;SDS011;397;50.564;7.272;2022-10-10T09:24:11;7.90;;;5.43;;
830;SDS011;397;50.564;7.272;2022-10-10T09:26:41;7.27;;;6.07;;
830;SDS011;397;50.564;7.272;2022-10-10T09:29:21;7.93;;;5.50;;
830;SDS011;397;50.564;7.272;2022-10-10T09:31:57;7.83;;;6.43;;
830;SDS011;397;50.564;7.272;2022-10-10T09:37:34;7.20;;;6.00;;
830;SDS011;397;50.564;7.272;2022-10-10T09:40:07;7.17;;;6.23;;
830;SDS011;397;50.564;7.272;2022-10-10T09:42:37;7.90;;;6.60;;
830;SDS011;397;50.564;7.272;2022-10-10T09:45:12;9.93;;;6.23;;
830;SDS011;397;50.564;7.272;2022-10-10T09:47:50;8.80;;;5.83;;
830;SDS011;397;50.564;7.272;2022-10-10T09:50:19;9.27;;;6.33;;
830;SDS011;397;50.564;7.272;2022-10-10T09:52:47;9.80;;;6.30;;
830;SDS011;397;50.564;7.272;2022-10-10T09:57:52;6.97;;;5.60;;
830;SDS011;397;50.564;7.272;2022-10-10T10:03:18;13.23;;;7.23;;
830;SDS011;397;50.564;7.272;2022-10-10T10:05:38;8.10;;;6.80;;
830;SDS011;397;50.564;7.272;2022-10-10T10:08:21;11.40;;;6.50;;
830;SDS011;397;50.564;7.272;2022-10-10T10:10:54;8.90;;;5.90;;
830;SDS011;397;50.564;7.272;2022-10-10T10:13:26;11.87;;;6.30;;
830;SDS011;397;50.564;7.272;2022-10-10T10:18:41;8.63;;;6.00;;
830;SDS011;397;50.564;7.272;2022-10-10T10:21:22;8.60;;;5.33;;
830;SDS011;397;50.564;7.272;2022-10-10T10:23:49;10.07;;;6.13;;
830;SDS011;397;50.564;7.272;2022-10-10T10:26:23;9.10;;;6.30;;
830;SDS011;397;50.564;7.272;2022-10-10T10:37:39;13.53;;;6.30;;
830;SDS011;397;50.564;7.272;2022-10-10T10:40:26;8.57;;;5.07;;
830;SDS011;397;50.564;7.272;2022-10-10T10:48:44;9.50;;;5.77;;
830;SDS011;397;50.564;7.272;2022-10-10T10:51:39;11.63;;;5.73;;
830;SDS011;397;50.564;7.272;2022-10-10T10:54:21;7.63;;;5.30;;
830;SDS011;397;50.564;7.272;2022-10-10T10:56:58;13.43;;;5.37;;
830;SDS011;397;50.564;7.272;2022-10-10T11:02:11;8.93;;;4.87;;
830;SDS011;397;50.564;7.272;2022-10-10T11:07:14;7.97;;;5.80;;
830;SDS011;397;50.564;7.272;2022-10-10T11:09:44;5.90;;;4.80;;
830;SDS011;397;50.564;7.272;2022-10-10T11:18:00;11.10;;;4.57;;
830;SDS011;397;50.564;7.272;2022-10-10T11:20:37;8.20;;;5.73;;
830;SDS011;397;50.564;7.272;2022-10-10T11:23:10;10.97;;;5.77;;
830;SDS011;397;50.564;7.272;2022-10-10T11:25:50;5.63;;;4.63;;
830;SDS011;397;50.564;7.272;2022-10-10T11:28:29;6.20;;;5.10;;
830;SDS011;397;50.564;7.272;2022-10-10T11:31:06;10.50;;;5.03;;
830;SDS011;397;50.564;7.272;2022-10-10T11:33:37;10.67;;;5.27;;
830;SDS011;397;50.564;7.272;2022-10-10T11:38:56;7.87;;;5.63;;
830;SDS011;397;50.564;7.272;2022-10-10T11:41:26;9.03;;;6.00;;
830;SDS011;397;50.564;7.272;2022-10-10T11:44:11;6.60;;;5.33;;
830;SDS011;397;50.564;7.272;2022-10-10T11:46:54;8.37;;;5.50;;
830;SDS011;397;50.564;7.272;2022-10-10T11:52:45;13.63;;;6.00;;
830;SDS011;397;50.564;7.272;2022-10-10T11:55:21;9.40;;;6.07;;
830;SDS011;397;50.564;7.272;2022-10-10T12:00:36;11.70;;;6.30;;
830;SDS011;397;50.564;7.272;2022-10-10T12:03:05;6.80;;;4.80;;
830;SDS011;397;50.564;7.272;2022-10-10T12:05:34;11.03;;;5.20;;
830;SDS011;397;50.564;7.272;2022-10-10T12:08:12;8.93;;;4.90;;
830;SDS011;397;50.564;7.272;2022-10-10T12:10:45;7.60;;;5.03;;
830;SDS011;397;50.564;7.272;2022-10-10T12:13:22;8.03;;;5.10;;
830;SDS011;397;50.564;7.272;2022-10-10T12:15:48;12.97;;;6.03;;
830;SDS011;397;50.564;7.272;2022-10-10T12:18:25;9.07;;;5.30;;
830;SDS011;397;50.564;7.272;2022-10-10T12:21:11;10.23;;;5.10;;
830;SDS011;397;50.564;7.272;2022-10-10T12:23:36;8.50;;;4.90;;
830;SDS011;397;50.564;7.272;2022-10-10T12:26:11;12.90;;;5.73;;
830;SDS011;397;50.564;7.272;2022-10-10T12:29:42;8.23;;;4.83;;
830;SDS011;397;50.564;7.272;2022-10-10T12:31:26;8.57;;;5.53;;
830;SDS011;397;50.564;7.272;2022-10-10T12:33:59;7.00;;;4.93;;
830;SDS011;397;50.564;7.272;2022-10-10T12:47:00;6.33;;;4.10;;
830;SDS011;397;50.564;7.272;2022-10-10T12:49:34;7.90;;;4.80;;
830;SDS011;397;50.564;7.272;2022-10-10T12:52:12;9.70;;;4.83;;
830;SDS011;397;50.564;7.272;2022-10-10T12:54:42;8.80;;;3.90;;
830;SDS011;397;50.564;7.272;2022-10-10T12:57:20;12.87;;;5.10;;
830;SDS011;397;50.564;7.272;2022-10-10T12:59:48;6.23;;;4.20;;
830;SDS011;397;50.564;7.272;2022-10-10T13:02:18;8.70;;;4.67;;
830;SDS011;397;50.564;7.272;2022-10-10T13:04:46;9.33;;;4.93;;
830;SDS011;397;50.564;7.272;2022-10-10T13:07:16;8.27;;;4.43;;
830;SDS011;397;50.564;7.272;2022-10-10T13:09:47;10.20;;;5.30;;
830;SDS011;397;50.564;7.272;2022-10-10T13:12:35;7.53;;;3.57;;
830;SDS011;397;50.564;7.272;2022-10-10T13:14:56;9.23;;;3.63;;
830;SDS011;397;50.564;7.272;2022-10-10T13:17:28;9.57;;;4.50;;
830;SDS011;397;50.564;7.272;2022-10-10T13:19:58;8.07;;;3.57;;
830;SDS011;397;50.564;7.272;2022-10-10T13:22:27;11.80;;;4.30;;
830;SDS011;397;50.564;7.272;2022-10-10T13:24:58;7.77;;;3.70;;
830;SDS011;397;50.564;7.272;2022-10-10T13:27:27;10.03;;;3.97;;
830;SDS011;397;50.564;7.272;2022-10-10T13:29:57;10.13;;;3.50;;
830;SDS011;397;50.564;7.272;2022-10-10T13:32:30;6.37;;;4.30;;
830;SDS011;397;50.564;7.272;2022-10-10T13:35:05;9.03;;;4.07;;
830;SDS011;397;50.564;7.272;2022-10-10T13:37:29;11.13;;;4.83;;
830;SDS011;397;50.564;7.272;2022-10-10T13:39:57;6.33;;;4.90;;
830;SDS011;397;50.564;7.272;2022-10-10T13:42:30;8.00;;;3.50;;
830;SDS011;397;50.564;7.272;2022-10-10T13:44:59;7.70;;;4.00;;
830;SDS011;397;50.564;7.272;2022-10-10T13:56:09;11.77;;;4.00;;
830;SDS011;397;50.564;7.272;2022-10-10T13:58:46;10.10;;;4.20;;
830;SDS011;397;50.564;7.272;2022-10-10T14:01:26;7.53;;;3.70;;
830;SDS011;397;50.564;7.272;2022-10-10T14:03:56;7.63;;;3.90;;
830;SDS011;397;50.564;7.272;2022-10-10T14:06:34;10.53;;;3.77;;
830;SDS011;397;50.564;7.272;2022-10-10T14:09:12;6.77;;;3.50;;
830;SDS011;397;50.564;7.272;2022-10-10T14:11:47;6.60;;;3.87;;
830;SDS011;397;50.564;7.272;2022-10-10T14:14:21;16.67;;;4.60;;
830;SDS011;397;50.564;7.272;2022-10-10T14:17:00;17.20;;;4.60;;
830;SDS011;397;50.564;7.272;2022-10-10T14:19:30;12.57;;;4.90;;
830;SDS011;397;50.564;7.272;2022-10-10T14:21:58;8.73;;;4.63;;
830;SDS011;397;50.564;7.272;2022-10-10T14:24:26;9.90;;;4.30;;
830;SDS011;397;50.564;7.272;2022-10-10T14:26:53;8.63;;;4.57;;
830;SDS011;397;50.564;7.272;2022-10-10T14:29:21;10.13;;;4.80;;
830;SDS011;397;50.564;7.272;2022-10-10T14:31:48;17.03;;;5.90;;
830;SDS011;397;50.564;7.272;2022-10-10T14:34:16;8.40;;;4.17;;
830;SDS011;397;50.564;7.272;2022-10-10T14:36:45;9.80;;;4.00;;
830;SDS011;397;50.564;7.272;2022-10-10T14:39:15;12.80;;;5.37;;
830;SDS011;397;50.564;7.272;2022-10-10T14:41:44;11.27;;;3.97;;
830;SDS011;397;50.564;7.272;2022-10-10T14:44:12;9.10;;;4.03;;
830;SDS011;397;50.564;7.272;2022-10-10T14:46:40;10.70;;;4.00;;
830;SDS011;397;50.564;7.272;2022-10-10T14:49:14;8.63;;;4.10;;
830;SDS011;397;50.564;7.272;2022-10-10T14:51:41;9.57;;;4.03;;
830;SDS011;397;50.564;7.272;2022-10-10T14:54:09;11.00;;;4.70;;
830;SDS011;397;50.564;7.272;2022-10-10T14:56:36;9.67;;;4.30;;
830;SDS011;397;50.564;7.272;2022-10-10T14:59:24;13.63;;;4.23;;
830;SDS011;397;50.564;7.272;2022-10-10T15:01:45;10.07;;;4.83;;
830;SDS011;397;50.564;7.272;2022-10-10T15:04:13;9.17;;;4.60;;
830;SDS011;397;50.564;7.272;2022-10-10T15:06:41;12.67;;;4.47;;
830;SDS011;397;50.564;7.272;2022-10-10T15:09:09;11.33;;;4.37;;
830;SDS011;397;50.564;7.272;2022-10-10T15:11:37;12.23;;;4.70;;
830;SDS011;397;50.564;7.272;2022-10-10T15:14:05;11.33;;;4.20;;
830;SDS011;397;50.564;7.272;2022-10-10T15:16:33;15.93;;;4.30;;
830;SDS011;397;50.564;7.272;2022-10-10T15:19:00;14.37;;;5.07;;
830;SDS011;397;50.564;7.272;2022-10-10T15:21:28;17.33;;;5.53;;
830;SDS011;397;50.564;7.272;2022-10-10T15:23:55;16.67;;;5.17;;
830;SDS011;397;50.564;7.272;2022-10-10T15:26:23;16.33;;;4.50;;
830;SDS011;397;50.564;7.272;2022-10-10T15:28:50;9.70;;;3.77;;
830;SDS011;397;50.564;7.272;2022-10-10T15:31:24;9.70;;;3.60;;
830;SDS011;397;50.564;7.272;2022-10-10T15:33:56;7.47;;;3.77;;
830;SDS011;397;50.564;7.272;2022-10-10T15:36:24;13.90;;;5.67;;
830;SDS011;397;50.564;7.272;2022-10-10T15:38:51;13.93;;;4.37;;
830;SDS011;397;50.564;7.272;2022-10-10T15:41:20;9.00;;;4.30;;
830;SDS011;397;50.564;7.272;2022-10-10T15:43:49;11.63;;;4.60;;
830;SDS011;397;50.564;7.272;2022-10-10T15:46:23;10.13;;;4.07;;
830;SDS011;397;50.564;7.272;2022-10-10T15:48:52;7.07;;;3.90;;
830;SDS011;397;50.564;7.272;2022-10-10T15:51:21;7.10;;;3.57;;
830;SDS011;397;50.564;7.272;2022-10-10T15:53:49;14.80;;;4.63;;
830;SDS011;397;50.564;7.272;2022-10-10T15:56:17;10.47;;;4.10;;
830;SDS011;397;50.564;7.272;2022-10-10T15:58:44;12.67;;;4.67;;
830;SDS011;397;50.564;7.272;2022-10-10T16:01:13;12.33;;;4.40;;
830;SDS011;397;50.564;7.272;2022-10-10T16:03:42;9.07;;;3.70;;
830;SDS011;397;50.564;7.272;2022-10-10T16:06:14;8.43;;;4.40;;
830;SDS011;397;50.564;7.272;2022-10-10T16:08:43;16.07;;;5.00;;
830;SDS011;397;50.564;7.272;2022-10-10T16:11:14;8.90;;;5.10;;
830;SDS011;397;50.564;7.272;2022-10-10T16:13:45;12.50;;;4.90;;
830;SDS011;397;50.564;7.272;2022-10-10T16:16:15;11.63;;;4.93;;
830;SDS011;397;50.564;7.272;2022-10-10T16:18:45;16.13;;;5.27;;
830;SDS011;397;50.564;7.272;2022-10-10T16:21:15;15.50;;;5.10;;
830;SDS011;397;50.564;7.272;2022-10-10T16:23:44;11.63;;;4.40;;
830;SDS011;397;50.564;7.272;2022-10-10T16:26:19;11.13;;;5.20;;
830;SDS011;397;50.564;7.272;2022-10-10T16:28:44;8.27;;;4.60;;
830;SDS011;397;50.564;7.272;2022-10-10T16:31:13;8.07;;;4.37;;
830;SDS011;397;50.564;7.272;2022-10-10T16:33:43;8.80;;;4.93;;
830;SDS011;397;50.564;7.272;2022-10-10T16:36:15;11.03;;;4.53;;
830;SDS011;397;50.564;7.272;2022-10-10T16:38:45;11.30;;;6.20;;
830;SDS011;397;50.564;7.272;2022-10-10T16:41:14;7.00;;;4.67;;
830;SDS011;397;50.564;7.272;2022-10-10T16:43:44;6.80;;;6.10;;
830;SDS011;397;50.564;7.272;2022-10-10T16:46:13;9.83;;;7.00;;
830;SDS011;397;50.564;7.272;2022-10-10T16:48:43;10.90;;;6.10;;
830;SDS011;397;50.564;7.272;2022-10-10T16:51:12;10.50;;;6.27;;
830;SDS011;397;50.564;7.272;2022-10-10T16:53:41;7.43;;;4.83;;
830;SDS011;397;50.564;7.272;2022-10-10T16:56:11;8.23;;;5.33;;
830;SDS011;397;50.564;7.272;2022-10-10T16:58:41;11.20;;;6.30;;
830;SDS011;397;50.564;7.272;2022-10-10T17:01:09;13.50;;;5.90;;
830;SDS011;397;50.564;7.272;2022-10-10T17:03:39;9.40;;;5.30;;
830;SDS011;397;50.564;7.272;2022-10-10T17:06:14;7.83;;;4.90;;
830;SDS011;397;50.564;7.272;2022-10-10T17:08:44;12.40;;;6.30;;
830;SDS011;397;50.564;7.272;2022-10-10T17:11:13;11.60;;;5.80;;
830;SDS011;397;50.564;7.272;2022-10-10T17:13:43;12.33;;;5.57;;
830;SDS011;397;50.564;7.272;2022-10-10T17:16:13;7.50;;;5.47;;
830;SDS011;397;50.564;7.272;2022-10-10T17:18:42;10.97;;;5.30;;
830;SDS011;397;50.564;7.272;2022-10-10T17:21:15;8.87;;;5.40;;
830;SDS011;397;50.564;7.272;2022-10-10T17:23:40;9.43;;;5.13;;
830;SDS011;397;50.564;7.272;2022-10-10T17:26:09;9.77;;;5.80;;
830;SDS011;397;50.564;7.272;2022-10-10T17:28:38;9.70;;;5.03;;
830;SDS011;397;50.564;7.272;2022-10-10T17:31:06;13.73;;;6.17;;
830;SDS011;397;50.564;7.272;2022-10-10T17:33:36;13.43;;;6.90;;
830;SDS011;397;50.564;7.272;2022-10-10T17:36:05;12.07;;;5.73;;
830;SDS011;397;50.564;7.272;2022-10-10T17:38:35;7.63;;;4.90;;
830;SDS011;397;50.564;7.272;2022-10-10T17:41:04;8.90;;;6.20;;
830;SDS011;397;50.564;7.272;2022-10-10T17:43:32;9.63;;;6.13;;